sensor_id;sensor_type;location;lat;lon;timestamp;P1;durP1;ratioP1;P2;durP2;ratioP2
39078;SDS011;24829;49.208;12.080;2022-12-16T00:00:20;71.22;;;33.05;;
39078;SDS011;24829;49.208;12.080;2022-12-16T00:02:47;81.03;;;36.58;;
39078;SDS011;24829;49.208;12.080;2022-12-16T00:05:13;82.45;;;36.10;;
39078;SDS011;24829;49.208;12.080;2022-12-16T00:07:38;79.30;;;35.47;;
39078;SDS011;24829;49.208;12.080;2022-12-16T00:10:05;81.75;;;34.50;;
39078;SDS011;24829;49.208;12.080;2022-12-16T00:12:31;80.80;;;34.97;;
39078;SDS011;24829;49.208;12.080;2022-12-16T00:14:57;83.22;;;35.00;;
39078;SDS011;24829;49.208;12.080;2022-12-16T00:17:22;89.78;;;39.22;;
39078;SDS011;24829;49.208;12.080;2022-12-16T00:19:48;79.50;;;33.63;;
39078;SDS011;24829;49.208;12.080;2022-12-16T00:22:13;79.72;;;34.33;;
39078;SDS011;24829;49.208;12.080;2022-12-16T00:24:39;81.18;;;35.45;;
39078;SDS011;24829;49.208;12.080;2022-12-16T00:27:04;70.80;;;28.63;;
39078;SDS011;24829;49.208;12.080;2022-12-16T00:29:30;100.45;;;40.15;;
39078;SDS011;24829;49.208;12.080;2022-12-16T00:31:56;88.97;;;37.28;;
39078;SDS011;24829;49.208;12.080;2022-12-16T00:34:21;91.68;;;38.17;;
39078;SDS011;24829;49.208;12.080;2022-12-16T00:36:47;89.43;;;37.58;;
39078;SDS011;24829;49.208;12.080;2022-12-16T00:39:12;83.43;;;34.78;;
39078;SDS011;24829;49.208;12.080;2022-12-16T00:41:38;88.90;;;36.83;;
39078;SDS011;24829;49.208;12.080;2022-12-16T00:44:04;92.90;;;35.78;;
39078;SDS011;24829;49.208;12.080;2022-12-16T00:46:30;95.57;;;40.35;;
39078;SDS011;24829;49.208;12.080;2022-12-16T00:48:55;94.95;;;42.03;;
39078;SDS011;24829;49.208;12.080;2022-12-16T00:51:21;92.63;;;41.05;;
39078;SDS011;24829;49.208;12.080;2022-12-16T00:53:47;89.13;;;39.58;;
39078;SDS011;24829;49.208;12.080;2022-12-16T00:56:12;94.82;;;40.42;;
39078;SDS011;24829;49.208;12.080;2022-12-16T00:58:39;95.93;;;40.05;;
39078;SDS011;24829;49.208;12.080;2022-12-16T01:01:05;95.78;;;42.42;;
39078;SDS011;24829;49.208;12.080;2022-12-16T01:03:33;92.22;;;37.70;;
39078;SDS011;24829;49.208;12.080;2022-12-16T01:05:59;96.28;;;41.20;;
39078;SDS011;24829;49.208;12.080;2022-12-16T01:08:24;99.38;;;40.38;;
39078;SDS011;24829;49.208;12.080;2022-12-16T01:10:54;105.65;;;42.95;;
39078;SDS011;24829;49.208;12.080;2022-12-16T01:13:22;89.10;;;40.72;;
39078;SDS011;24829;49.208;12.080;2022-12-16T01:15:48;89.50;;;37.65;;
39078;SDS011;24829;49.208;12.080;2022-12-16T01:18:14;104.63;;;43.92;;
39078;SDS011;24829;49.208;12.080;2022-12-16T01:20:40;97.05;;;39.53;;
39078;SDS011;24829;49.208;12.080;2022-12-16T01:23:05;89.03;;;37.92;;
39078;SDS011;24829;49.208;12.080;2022-12-16T01:25:31;101.50;;;43.42;;
39078;SDS011;24829;49.208;12.080;2022-12-16T01:27:57;100.65;;;40.80;;
39078;SDS011;24829;49.208;12.080;2022-12-16T01:30:22;96.82;;;40.90;;
39078;SDS011;24829;49.208;12.080;2022-12-16T01:32:48;89.72;;;37.00;;
39078;SDS011;24829;49.208;12.080;2022-12-16T01:35:14;92.30;;;38.38;;
39078;SDS011;24829;49.208;12.080;2022-12-16T01:37:39;95.97;;;41.33;;
39078;SDS011;24829;49.208;12.080;2022-12-16T01:40:05;93.22;;;37.40;;
39078;SDS011;24829;49.208;12.080;2022-12-16T01:42:33;81.97;;;34.70;;
39078;SDS011;24829;49.208;12.080;2022-12-16T01:50:41;94.45;;;41.20;;
39078;SDS011;24829;49.208;12.080;2022-12-16T01:53:07;98.32;;;38.92;;
39078;SDS011;24829;49.208;12.080;2022-12-16T01:55:34;88.20;;;37.70;;
39078;SDS011;24829;49.208;12.080;2022-12-16T02:00:32;96.88;;;39.72;;
39078;SDS011;24829;49.208;12.080;2022-12-16T02:02:58;89.72;;;40.53;;
39078;SDS011;24829;49.208;12.080;2022-12-16T02:05:24;86.43;;;36.30;;
39078;SDS011;24829;49.208;12.080;2022-12-16T02:07:55;88.28;;;34.17;;
39078;SDS011;24829;49.208;12.080;2022-12-16T02:24:09;85.63;;;36.42;;
39078;SDS011;24829;49.208;12.080;2022-12-16T02:32:29;85.07;;;36.58;;
39078;SDS011;24829;49.208;12.080;2022-12-16T02:35:24;82.82;;;35.28;;
39078;SDS011;24829;49.208;12.080;2022-12-16T02:44:17;89.82;;;36.10;;
39078;SDS011;24829;49.208;12.080;2022-12-16T02:46:12;78.65;;;33.08;;
39078;SDS011;24829;49.208;12.080;2022-12-16T02:48:38;73.45;;;33.25;;
39078;SDS011;24829;49.208;12.080;2022-12-16T02:51:03;80.88;;;36.55;;
39078;SDS011;24829;49.208;12.080;2022-12-16T02:53:30;90.05;;;40.17;;
39078;SDS011;24829;49.208;12.080;2022-12-16T02:56:01;78.93;;;33.80;;
39078;SDS011;24829;49.208;12.080;2022-12-16T03:03:59;82.05;;;33.45;;
39078;SDS011;24829;49.208;12.080;2022-12-16T03:06:26;91.35;;;36.30;;
39078;SDS011;24829;49.208;12.080;2022-12-16T03:08:55;75.72;;;31.02;;
39078;SDS011;24829;49.208;12.080;2022-12-16T03:11:24;82.90;;;35.10;;
39078;SDS011;24829;49.208;12.080;2022-12-16T03:13:53;76.82;;;31.15;;
39078;SDS011;24829;49.208;12.080;2022-12-16T03:16:20;86.78;;;34.72;;
39078;SDS011;24829;49.208;12.080;2022-12-16T03:18:50;83.22;;;34.22;;
39078;SDS011;24829;49.208;12.080;2022-12-16T03:21:19;87.72;;;34.17;;
39078;SDS011;24829;49.208;12.080;2022-12-16T03:23:53;78.55;;;33.40;;
39078;SDS011;24829;49.208;12.080;2022-12-16T03:29:13;85.53;;;36.13;;
39078;SDS011;24829;49.208;12.080;2022-12-16T03:37:08;86.20;;;32.90;;
39078;SDS011;24829;49.208;12.080;2022-12-16T03:39:38;82.22;;;34.08;;
39078;SDS011;24829;49.208;12.080;2022-12-16T03:42:14;80.13;;;33.80;;
39078;SDS011;24829;49.208;12.080;2022-12-16T03:44:44;81.97;;;33.55;;
39078;SDS011;24829;49.208;12.080;2022-12-16T03:47:10;75.95;;;32.75;;
39078;SDS011;24829;49.208;12.080;2022-12-16T03:49:37;88.00;;;35.03;;
39078;SDS011;24829;49.208;12.080;2022-12-16T03:52:03;77.85;;;32.63;;
39078;SDS011;24829;49.208;12.080;2022-12-16T03:54:29;80.57;;;32.67;;
39078;SDS011;24829;49.208;12.080;2022-12-16T03:56:54;90.22;;;36.85;;
39078;SDS011;24829;49.208;12.080;2022-12-16T03:59:20;85.18;;;33.22;;
39078;SDS011;24829;49.208;12.080;2022-12-16T04:01:46;78.40;;;34.00;;
39078;SDS011;24829;49.208;12.080;2022-12-16T04:04:11;89.55;;;34.92;;
39078;SDS011;24829;49.208;12.080;2022-12-16T04:06:37;83.38;;;35.88;;
39078;SDS011;24829;49.208;12.080;2022-12-16T04:09:02;72.10;;;29.92;;
39078;SDS011;24829;49.208;12.080;2022-12-16T04:11:28;83.85;;;34.00;;
39078;SDS011;24829;49.208;12.080;2022-12-16T04:14:12;78.95;;;33.15;;
39078;SDS011;24829;49.208;12.080;2022-12-16T04:16:56;75.72;;;33.30;;
39078;SDS011;24829;49.208;12.080;2022-12-16T04:19:42;78.20;;;29.50;;
39078;SDS011;24829;49.208;12.080;2022-12-16T04:22:29;83.45;;;33.55;;
39078;SDS011;24829;49.208;12.080;2022-12-16T04:25:33;92.43;;;36.83;;
39078;SDS011;24829;49.208;12.080;2022-12-16T04:28:00;85.30;;;37.58;;
39078;SDS011;24829;49.208;12.080;2022-12-16T04:30:27;82.95;;;34.78;;
39078;SDS011;24829;49.208;12.080;2022-12-16T04:32:59;90.05;;;35.00;;
39078;SDS011;24829;49.208;12.080;2022-12-16T04:35:46;90.75;;;35.35;;
39078;SDS011;24829;49.208;12.080;2022-12-16T04:38:30;92.95;;;34.80;;
39078;SDS011;24829;49.208;12.080;2022-12-16T04:41:15;94.30;;;40.13;;
39078;SDS011;24829;49.208;12.080;2022-12-16T04:43:59;84.25;;;33.63;;
39078;SDS011;24829;49.208;12.080;2022-12-16T04:46:43;85.22;;;33.03;;
39078;SDS011;24829;49.208;12.080;2022-12-16T04:49:27;79.80;;;32.38;;
39078;SDS011;24829;49.208;12.080;2022-12-16T04:52:11;88.38;;;35.42;;
39078;SDS011;24829;49.208;12.080;2022-12-16T04:54:56;85.63;;;34.72;;
39078;SDS011;24829;49.208;12.080;2022-12-16T04:57:42;84.57;;;34.60;;
39078;SDS011;24829;49.208;12.080;2022-12-16T05:00:29;85.05;;;34.38;;
39078;SDS011;24829;49.208;12.080;2022-12-16T05:03:13;83.55;;;29.58;;
39078;SDS011;24829;49.208;12.080;2022-12-16T05:05:57;83.20;;;34.15;;
39078;SDS011;24829;49.208;12.080;2022-12-16T05:08:41;83.80;;;33.42;;
39078;SDS011;24829;49.208;12.080;2022-12-16T05:11:25;85.43;;;34.25;;
39078;SDS011;24829;49.208;12.080;2022-12-16T05:14:09;84.88;;;33.50;;
39078;SDS011;24829;49.208;12.080;2022-12-16T05:16:53;83.50;;;34.88;;
39078;SDS011;24829;49.208;12.080;2022-12-16T05:19:37;82.55;;;33.63;;
39078;SDS011;24829;49.208;12.080;2022-12-16T05:22:21;85.22;;;35.17;;
39078;SDS011;24829;49.208;12.080;2022-12-16T05:25:05;76.57;;;30.33;;
39078;SDS011;24829;49.208;12.080;2022-12-16T05:27:51;89.55;;;36.70;;
39078;SDS011;24829;49.208;12.080;2022-12-16T05:30:35;85.05;;;33.53;;
39078;SDS011;24829;49.208;12.080;2022-12-16T05:33:20;75.03;;;28.63;;
39078;SDS011;24829;49.208;12.080;2022-12-16T05:36:04;82.40;;;31.77;;
39078;SDS011;24829;49.208;12.080;2022-12-16T05:38:49;80.97;;;34.33;;
39078;SDS011;24829;49.208;12.080;2022-12-16T05:41:33;83.43;;;33.75;;
39078;SDS011;24829;49.208;12.080;2022-12-16T05:44:17;89.45;;;33.45;;
39078;SDS011;24829;49.208;12.080;2022-12-16T05:47:02;84.68;;;32.13;;
39078;SDS011;24829;49.208;12.080;2022-12-16T05:49:46;86.72;;;34.00;;
39078;SDS011;24829;49.208;12.080;2022-12-16T05:52:30;80.47;;;32.17;;
39078;SDS011;24829;49.208;12.080;2022-12-16T05:55:14;78.88;;;30.75;;
39078;SDS011;24829;49.208;12.080;2022-12-16T05:57:58;85.38;;;32.35;;
39078;SDS011;24829;49.208;12.080;2022-12-16T06:00:42;80.40;;;31.27;;
39078;SDS011;24829;49.208;12.080;2022-12-16T06:03:26;79.32;;;30.05;;
39078;SDS011;24829;49.208;12.080;2022-12-16T06:06:10;70.65;;;30.00;;
39078;SDS011;24829;49.208;12.080;2022-12-16T06:08:54;73.03;;;30.58;;
39078;SDS011;24829;49.208;12.080;2022-12-16T06:11:38;76.43;;;32.08;;
39078;SDS011;24829;49.208;12.080;2022-12-16T06:14:27;77.80;;;28.52;;
39078;SDS011;24829;49.208;12.080;2022-12-16T06:17:11;81.75;;;30.85;;
39078;SDS011;24829;49.208;12.080;2022-12-16T06:19:55;73.25;;;29.00;;
39078;SDS011;24829;49.208;12.080;2022-12-16T06:22:39;68.50;;;28.73;;
39078;SDS011;24829;49.208;12.080;2022-12-16T06:25:23;73.07;;;28.10;;
39078;SDS011;24829;49.208;12.080;2022-12-16T06:28:07;78.90;;;30.23;;
39078;SDS011;24829;49.208;12.080;2022-12-16T06:30:51;71.07;;;27.42;;
39078;SDS011;24829;49.208;12.080;2022-12-16T06:33:35;66.90;;;26.17;;
39078;SDS011;24829;49.208;12.080;2022-12-16T06:36:19;73.13;;;28.58;;
39078;SDS011;24829;49.208;12.080;2022-12-16T06:39:03;66.05;;;27.30;;
39078;SDS011;24829;49.208;12.080;2022-12-16T06:41:47;74.10;;;32.13;;
39078;SDS011;24829;49.208;12.080;2022-12-16T06:44:31;82.40;;;30.60;;
39078;SDS011;24829;49.208;12.080;2022-12-16T06:47:15;71.15;;;29.75;;
39078;SDS011;24829;49.208;12.080;2022-12-16T06:49:59;74.20;;;29.30;;
39078;SDS011;24829;49.208;12.080;2022-12-16T06:52:43;75.75;;;31.92;;
39078;SDS011;24829;49.208;12.080;2022-12-16T06:55:28;78.72;;;31.88;;
39078;SDS011;24829;49.208;12.080;2022-12-16T06:58:13;84.28;;;31.40;;
39078;SDS011;24829;49.208;12.080;2022-12-16T07:00:57;72.60;;;28.23;;
39078;SDS011;24829;49.208;12.080;2022-12-16T07:03:41;76.70;;;31.85;;
39078;SDS011;24829;49.208;12.080;2022-12-16T07:06:25;79.22;;;30.50;;
39078;SDS011;24829;49.208;12.080;2022-12-16T07:09:10;65.72;;;26.33;;
39078;SDS011;24829;49.208;12.080;2022-12-16T07:11:54;64.55;;;26.17;;
39078;SDS011;24829;49.208;12.080;2022-12-16T07:14:38;70.15;;;28.65;;
39078;SDS011;24829;49.208;12.080;2022-12-16T07:17:22;62.20;;;24.00;;
39078;SDS011;24829;49.208;12.080;2022-12-16T07:20:06;68.32;;;30.15;;
39078;SDS011;24829;49.208;12.080;2022-12-16T07:22:51;70.90;;;30.02;;
39078;SDS011;24829;49.208;12.080;2022-12-16T07:25:35;62.42;;;26.92;;
39078;SDS011;24829;49.208;12.080;2022-12-16T07:28:19;70.05;;;29.55;;
39078;SDS011;24829;49.208;12.080;2022-12-16T07:31:03;85.20;;;33.85;;
39078;SDS011;24829;49.208;12.080;2022-12-16T07:33:47;65.43;;;26.42;;
39078;SDS011;24829;49.208;12.080;2022-12-16T07:36:31;62.78;;;25.70;;
39078;SDS011;24829;49.208;12.080;2022-12-16T07:39:15;65.50;;;26.65;;
39078;SDS011;24829;49.208;12.080;2022-12-16T07:41:59;64.43;;;25.85;;
39078;SDS011;24829;49.208;12.080;2022-12-16T07:44:43;58.33;;;26.10;;
39078;SDS011;24829;49.208;12.080;2022-12-16T07:47:27;67.70;;;25.33;;
39078;SDS011;24829;49.208;12.080;2022-12-16T07:50:12;66.03;;;26.25;;
39078;SDS011;24829;49.208;12.080;2022-12-16T07:52:56;56.25;;;25.48;;
39078;SDS011;24829;49.208;12.080;2022-12-16T07:55:41;71.30;;;26.45;;
39078;SDS011;24829;49.208;12.080;2022-12-16T07:58:25;57.17;;;22.90;;
39078;SDS011;24829;49.208;12.080;2022-12-16T08:01:09;59.20;;;23.63;;
39078;SDS011;24829;49.208;12.080;2022-12-16T08:03:53;66.00;;;26.02;;
39078;SDS011;24829;49.208;12.080;2022-12-16T08:06:37;63.30;;;26.88;;
39078;SDS011;24829;49.208;12.080;2022-12-16T08:09:21;62.40;;;26.27;;
39078;SDS011;24829;49.208;12.080;2022-12-16T08:12:05;55.17;;;22.35;;
39078;SDS011;24829;49.208;12.080;2022-12-16T08:14:49;55.30;;;25.45;;
39078;SDS011;24829;49.208;12.080;2022-12-16T08:17:33;65.18;;;26.17;;
39078;SDS011;24829;49.208;12.080;2022-12-16T08:20:17;64.72;;;26.70;;
39078;SDS011;24829;49.208;12.080;2022-12-16T08:23:01;86.80;;;38.78;;
39078;SDS011;24829;49.208;12.080;2022-12-16T08:25:45;57.28;;;24.25;;
39078;SDS011;24829;49.208;12.080;2022-12-16T08:28:30;67.15;;;29.35;;
39078;SDS011;24829;49.208;12.080;2022-12-16T08:31:14;57.30;;;24.67;;
39078;SDS011;24829;49.208;12.080;2022-12-16T08:34:08;69.45;;;27.48;;
39078;SDS011;24829;49.208;12.080;2022-12-16T08:36:53;63.10;;;23.83;;
39078;SDS011;24829;49.208;12.080;2022-12-16T08:39:37;52.15;;;21.80;;
39078;SDS011;24829;49.208;12.080;2022-12-16T08:42:21;53.88;;;22.05;;
39078;SDS011;24829;49.208;12.080;2022-12-16T08:45:05;59.80;;;25.27;;
39078;SDS011;24829;49.208;12.080;2022-12-16T08:47:49;57.88;;;25.20;;
39078;SDS011;24829;49.208;12.080;2022-12-16T08:50:33;71.15;;;24.20;;
39078;SDS011;24829;49.208;12.080;2022-12-16T08:53:17;101.00;;;40.50;;
39078;SDS011;24829;49.208;12.080;2022-12-16T08:56:01;84.38;;;34.40;;
39078;SDS011;24829;49.208;12.080;2022-12-16T08:58:45;63.95;;;27.88;;
39078;SDS011;24829;49.208;12.080;2022-12-16T09:01:29;67.38;;;29.08;;
39078;SDS011;24829;49.208;12.080;2022-12-16T09:04:13;52.97;;;22.75;;
39078;SDS011;24829;49.208;12.080;2022-12-16T09:06:57;47.30;;;21.58;;
39078;SDS011;24829;49.208;12.080;2022-12-16T09:09:41;49.35;;;19.98;;
39078;SDS011;24829;49.208;12.080;2022-12-16T09:12:25;46.70;;;19.23;;
39078;SDS011;24829;49.208;12.080;2022-12-16T09:15:09;48.30;;;18.77;;
39078;SDS011;24829;49.208;12.080;2022-12-16T09:17:53;47.80;;;20.67;;
39078;SDS011;24829;49.208;12.080;2022-12-16T09:20:38;48.47;;;21.20;;
39078;SDS011;24829;49.208;12.080;2022-12-16T09:23:22;51.63;;;21.08;;
39078;SDS011;24829;49.208;12.080;2022-12-16T09:26:06;48.75;;;20.98;;
39078;SDS011;24829;49.208;12.080;2022-12-16T09:28:50;49.00;;;20.90;;
39078;SDS011;24829;49.208;12.080;2022-12-16T09:31:34;47.45;;;19.45;;
39078;SDS011;24829;49.208;12.080;2022-12-16T09:34:18;49.25;;;20.02;;
39078;SDS011;24829;49.208;12.080;2022-12-16T09:37:02;44.22;;;20.17;;
39078;SDS011;24829;49.208;12.080;2022-12-16T09:39:46;53.83;;;21.33;;
39078;SDS011;24829;49.208;12.080;2022-12-16T09:48:53;45.38;;;19.02;;
39078;SDS011;24829;49.208;12.080;2022-12-16T09:51:49;43.03;;;18.48;;
39078;SDS011;24829;49.208;12.080;2022-12-16T09:54:35;47.05;;;19.80;;
39078;SDS011;24829;49.208;12.080;2022-12-16T09:57:24;37.60;;;16.27;;
39078;SDS011;24829;49.208;12.080;2022-12-16T10:00:16;50.60;;;21.25;;
39078;SDS011;24829;49.208;12.080;2022-12-16T10:18:11;38.80;;;18.83;;
39078;SDS011;24829;49.208;12.080;2022-12-16T10:21:14;39.85;;;17.52;;
39078;SDS011;24829;49.208;12.080;2022-12-16T10:27:47;30.73;;;14.98;;
39078;SDS011;24829;49.208;12.080;2022-12-16T10:30:33;36.80;;;15.95;;
39078;SDS011;24829;49.208;12.080;2022-12-16T10:33:20;73.90;;;28.63;;
39078;SDS011;24829;49.208;12.080;2022-12-16T10:36:19;46.40;;;19.35;;
39078;SDS011;24829;49.208;12.080;2022-12-16T10:39:06;42.70;;;19.13;;
39078;SDS011;24829;49.208;12.080;2022-12-16T10:42:25;40.47;;;17.58;;
39078;SDS011;24829;49.208;12.080;2022-12-16T10:45:23;44.15;;;20.40;;
39078;SDS011;24829;49.208;12.080;2022-12-16T10:48:11;44.42;;;19.83;;
39078;SDS011;24829;49.208;12.080;2022-12-16T10:51:00;43.22;;;20.45;;
39078;SDS011;24829;49.208;12.080;2022-12-16T10:53:45;36.88;;;16.38;;
39078;SDS011;24829;49.208;12.080;2022-12-16T11:00:17;34.17;;;15.93;;
39078;SDS011;24829;49.208;12.080;2022-12-16T11:03:24;34.97;;;15.77;;
39078;SDS011;24829;49.208;12.080;2022-12-16T11:06:12;42.80;;;18.67;;
39078;SDS011;24829;49.208;12.080;2022-12-16T11:12:30;38.22;;;17.20;;
39078;SDS011;24829;49.208;12.080;2022-12-16T11:15:24;27.88;;;13.95;;
39078;SDS011;24829;49.208;12.080;2022-12-16T11:18:17;33.95;;;16.00;;
39078;SDS011;24829;49.208;12.080;2022-12-16T11:24:03;31.27;;;14.40;;
39078;SDS011;24829;49.208;12.080;2022-12-16T11:26:59;23.27;;;9.65;;
39078;SDS011;24829;49.208;12.080;2022-12-16T11:29:57;25.15;;;12.13;;
39078;SDS011;24829;49.208;12.080;2022-12-16T11:32:51;22.50;;;10.73;;
39078;SDS011;24829;49.208;12.080;2022-12-16T11:35:38;26.65;;;12.52;;
39078;SDS011;24829;49.208;12.080;2022-12-16T11:41:28;25.02;;;12.30;;
39078;SDS011;24829;49.208;12.080;2022-12-16T11:44:45;26.50;;;11.57;;
39078;SDS011;24829;49.208;12.080;2022-12-16T11:47:34;32.20;;;14.30;;
39078;SDS011;24829;49.208;12.080;2022-12-16T11:50:26;28.50;;;12.23;;
39078;SDS011;24829;49.208;12.080;2022-12-16T11:56:03;30.70;;;12.15;;
39078;SDS011;24829;49.208;12.080;2022-12-16T11:58:49;23.25;;;11.13;;
39078;SDS011;24829;49.208;12.080;2022-12-16T12:01:44;27.17;;;11.55;;
39078;SDS011;24829;49.208;12.080;2022-12-16T12:04:32;24.83;;;11.48;;
39078;SDS011;24829;49.208;12.080;2022-12-16T12:07:20;23.42;;;12.10;;
39078;SDS011;24829;49.208;12.080;2022-12-16T12:10:10;27.08;;;12.57;;
39078;SDS011;24829;49.208;12.080;2022-12-16T12:19:33;23.02;;;9.93;;
39078;SDS011;24829;49.208;12.080;2022-12-16T12:22:39;20.70;;;9.95;;
39078;SDS011;24829;49.208;12.080;2022-12-16T12:28:38;20.67;;;8.52;;
39078;SDS011;24829;49.208;12.080;2022-12-16T12:37:48;19.27;;;8.93;;
39078;SDS011;24829;49.208;12.080;2022-12-16T12:47:13;18.90;;;9.23;;
39078;SDS011;24829;49.208;12.080;2022-12-16T12:55:44;24.40;;;11.25;;
39078;SDS011;24829;49.208;12.080;2022-12-16T12:58:35;27.65;;;11.25;;
39078;SDS011;24829;49.208;12.080;2022-12-16T13:01:20;24.52;;;10.05;;
39078;SDS011;24829;49.208;12.080;2022-12-16T13:04:10;20.80;;;9.10;;
39078;SDS011;24829;49.208;12.080;2022-12-16T13:06:58;22.83;;;10.15;;
39078;SDS011;24829;49.208;12.080;2022-12-16T13:09:44;22.83;;;10.60;;
39078;SDS011;24829;49.208;12.080;2022-12-16T13:27:10;24.08;;;11.27;;
39078;SDS011;24829;49.208;12.080;2022-12-16T13:30:17;26.15;;;11.65;;
39078;SDS011;24829;49.208;12.080;2022-12-16T13:33:05;26.70;;;11.07;;
39078;SDS011;24829;49.208;12.080;2022-12-16T13:36:03;26.42;;;12.18;;
39078;SDS011;24829;49.208;12.080;2022-12-16T13:38:49;25.00;;;11.00;;
39078;SDS011;24829;49.208;12.080;2022-12-16T13:50:35;27.35;;;12.23;;
39078;SDS011;24829;49.208;12.080;2022-12-16T13:53:24;24.48;;;12.63;;
39078;SDS011;24829;49.208;12.080;2022-12-16T13:56:12;24.27;;;12.13;;
39078;SDS011;24829;49.208;12.080;2022-12-16T13:59:02;25.35;;;12.02;;
39078;SDS011;24829;49.208;12.080;2022-12-16T14:01:51;27.85;;;12.23;;
39078;SDS011;24829;49.208;12.080;2022-12-16T14:04:38;28.10;;;13.02;;
39078;SDS011;24829;49.208;12.080;2022-12-16T14:07:26;28.15;;;11.68;;
39078;SDS011;24829;49.208;12.080;2022-12-16T14:16:35;33.55;;;14.88;;
39078;SDS011;24829;49.208;12.080;2022-12-16T14:22:44;27.08;;;14.52;;
39078;SDS011;24829;49.208;12.080;2022-12-16T14:25:39;38.00;;;15.63;;
39078;SDS011;24829;49.208;12.080;2022-12-16T14:28:27;29.20;;;14.15;;
39078;SDS011;24829;49.208;12.080;2022-12-16T14:31:16;31.15;;;13.50;;
39078;SDS011;24829;49.208;12.080;2022-12-16T14:34:10;29.55;;;14.77;;
39078;SDS011;24829;49.208;12.080;2022-12-16T14:37:06;31.33;;;13.73;;
39078;SDS011;24829;49.208;12.080;2022-12-16T14:39:55;28.83;;;13.88;;
39078;SDS011;24829;49.208;12.080;2022-12-16T14:42:39;31.45;;;13.73;;
39078;SDS011;24829;49.208;12.080;2022-12-16T14:45:28;25.45;;;12.02;;
39078;SDS011;24829;49.208;12.080;2022-12-16T14:48:33;29.63;;;14.00;;
39078;SDS011;24829;49.208;12.080;2022-12-16T14:51:27;22.17;;;11.38;;
39078;SDS011;24829;49.208;12.080;2022-12-16T14:57:10;26.95;;;13.55;;
39078;SDS011;24829;49.208;12.080;2022-12-16T15:00:02;25.50;;;12.43;;
39078;SDS011;24829;49.208;12.080;2022-12-16T15:03:06;29.33;;;13.15;;
39078;SDS011;24829;49.208;12.080;2022-12-16T15:06:05;33.15;;;17.23;;
39078;SDS011;24829;49.208;12.080;2022-12-16T15:08:59;28.45;;;12.05;;
39078;SDS011;24829;49.208;12.080;2022-12-16T15:11:46;29.60;;;12.40;;
39078;SDS011;24829;49.208;12.080;2022-12-16T15:14:32;26.45;;;11.57;;
39078;SDS011;24829;49.208;12.080;2022-12-16T15:17:36;31.77;;;15.77;;
39078;SDS011;24829;49.208;12.080;2022-12-16T15:20:29;26.42;;;11.65;;
39078;SDS011;24829;49.208;12.080;2022-12-16T15:26:06;28.02;;;12.65;;
39078;SDS011;24829;49.208;12.080;2022-12-16T15:28:51;28.63;;;11.98;;
39078;SDS011;24829;49.208;12.080;2022-12-16T15:31:36;25.13;;;11.95;;
39078;SDS011;24829;49.208;12.080;2022-12-16T15:34:23;26.20;;;11.57;;
39078;SDS011;24829;49.208;12.080;2022-12-16T15:43:19;33.22;;;13.13;;
39078;SDS011;24829;49.208;12.080;2022-12-16T15:46:19;29.45;;;11.00;;
39078;SDS011;24829;49.208;12.080;2022-12-16T15:49:05;26.65;;;11.27;;
39078;SDS011;24829;49.208;12.080;2022-12-16T15:52:49;28.92;;;13.23;;
39078;SDS011;24829;49.208;12.080;2022-12-16T15:55:52;28.42;;;12.77;;
39078;SDS011;24829;49.208;12.080;2022-12-16T15:58:28;26.42;;;12.63;;
39078;SDS011;24829;49.208;12.080;2022-12-16T16:01:16;26.33;;;12.65;;
39078;SDS011;24829;49.208;12.080;2022-12-16T16:03:54;30.33;;;12.98;;
39078;SDS011;24829;49.208;12.080;2022-12-16T16:06:40;27.90;;;13.95;;
39078;SDS011;24829;49.208;12.080;2022-12-16T16:09:28;32.90;;;14.95;;
39078;SDS011;24829;49.208;12.080;2022-12-16T16:12:15;33.53;;;14.75;;
39078;SDS011;24829;49.208;12.080;2022-12-16T16:15:01;31.77;;;14.10;;
39078;SDS011;24829;49.208;12.080;2022-12-16T16:17:47;31.73;;;13.98;;
39078;SDS011;24829;49.208;12.080;2022-12-16T16:20:36;29.23;;;14.45;;
39078;SDS011;24829;49.208;12.080;2022-12-16T16:23:20;27.02;;;14.55;;
39078;SDS011;24829;49.208;12.080;2022-12-16T16:26:04;24.88;;;12.93;;
39078;SDS011;24829;49.208;12.080;2022-12-16T16:28:48;27.92;;;12.75;;
39078;SDS011;24829;49.208;12.080;2022-12-16T16:31:32;30.23;;;13.60;;
39078;SDS011;24829;49.208;12.080;2022-12-16T16:34:16;28.08;;;12.88;;
39078;SDS011;24829;49.208;12.080;2022-12-16T16:37:00;24.77;;;11.52;;
39078;SDS011;24829;49.208;12.080;2022-12-16T16:39:44;30.48;;;14.73;;
39078;SDS011;24829;49.208;12.080;2022-12-16T16:42:28;29.08;;;13.57;;
39078;SDS011;24829;49.208;12.080;2022-12-16T16:45:12;32.47;;;15.50;;
39078;SDS011;24829;49.208;12.080;2022-12-16T16:48:02;30.15;;;14.00;;
39078;SDS011;24829;49.208;12.080;2022-12-16T16:50:48;26.52;;;13.32;;
39078;SDS011;24829;49.208;12.080;2022-12-16T16:53:32;31.15;;;15.00;;
39078;SDS011;24829;49.208;12.080;2022-12-16T16:56:16;31.38;;;14.32;;
39078;SDS011;24829;49.208;12.080;2022-12-16T16:59:00;32.38;;;15.75;;
39078;SDS011;24829;49.208;12.080;2022-12-16T17:01:44;33.88;;;14.50;;
39078;SDS011;24829;49.208;12.080;2022-12-16T17:04:28;33.90;;;15.10;;
39078;SDS011;24829;49.208;12.080;2022-12-16T17:07:13;35.70;;;16.63;;
39078;SDS011;24829;49.208;12.080;2022-12-16T17:09:57;36.08;;;17.40;;
39078;SDS011;24829;49.208;12.080;2022-12-16T17:12:41;36.85;;;18.05;;
39078;SDS011;24829;49.208;12.080;2022-12-16T17:15:28;39.97;;;18.88;;
39078;SDS011;24829;49.208;12.080;2022-12-16T17:18:16;38.42;;;17.95;;
39078;SDS011;24829;49.208;12.080;2022-12-16T17:21:00;41.92;;;19.48;;
39078;SDS011;24829;49.208;12.080;2022-12-16T17:23:44;46.00;;;21.63;;
39078;SDS011;24829;49.208;12.080;2022-12-16T17:26:28;45.00;;;20.52;;
39078;SDS011;24829;49.208;12.080;2022-12-16T17:29:22;51.78;;;22.08;;
39078;SDS011;24829;49.208;12.080;2022-12-16T17:32:08;39.80;;;19.38;;
39078;SDS011;24829;49.208;12.080;2022-12-16T17:34:52;52.00;;;22.25;;
39078;SDS011;24829;49.208;12.080;2022-12-16T17:37:36;46.85;;;21.70;;
39078;SDS011;24829;49.208;12.080;2022-12-16T17:40:21;46.78;;;22.35;;
39078;SDS011;24829;49.208;12.080;2022-12-16T17:43:05;49.17;;;22.13;;
39078;SDS011;24829;49.208;12.080;2022-12-16T17:45:57;45.95;;;22.63;;
39078;SDS011;24829;49.208;12.080;2022-12-16T17:48:42;52.10;;;27.73;;
39078;SDS011;24829;49.208;12.080;2022-12-16T17:51:26;56.20;;;24.77;;
39078;SDS011;24829;49.208;12.080;2022-12-16T17:54:10;50.30;;;22.73;;
39078;SDS011;24829;49.208;12.080;2022-12-16T17:56:54;54.90;;;25.20;;
39078;SDS011;24829;49.208;12.080;2022-12-16T17:59:38;47.10;;;22.70;;
39078;SDS011;24829;49.208;12.080;2022-12-16T18:02:22;46.05;;;22.95;;
39078;SDS011;24829;49.208;12.080;2022-12-16T18:05:07;51.47;;;23.75;;
39078;SDS011;24829;49.208;12.080;2022-12-16T18:07:51;52.53;;;24.17;;
39078;SDS011;24829;49.208;12.080;2022-12-16T18:10:35;48.30;;;22.33;;
39078;SDS011;24829;49.208;12.080;2022-12-16T18:13:19;49.00;;;25.42;;
39078;SDS011;24829;49.208;12.080;2022-12-16T18:16:03;52.17;;;25.42;;